createdAt,value
2017-05-26T00:00:37.179Z,1016.60
2017-05-26T00:01:38.634Z,1016.60
2017-05-26T00:02:40.088Z,1016.62
2017-05-26T00:03:41.538Z,1016.64
2017-05-26T00:04:42.996Z,1016.65
2017-05-26T00:05:44.458Z,1016.64
2017-05-26T00:06:45.911Z,1016.65
2017-05-26T00:07:47.370Z,1016.68
2017-05-26T00:08:48.819Z,1016.64
2017-05-26T00:09:50.270Z,1016.68
2017-05-26T00:10:51.720Z,1016.71
2017-05-26T00:11:53.173Z,1016.68
2017-05-26T00:12:54.639Z,1016.70
2017-05-26T00:13:56.093Z,1016.67
2017-05-26T00:14:57.557Z,1016.68
2017-05-26T00:15:58.995Z,1016.67
2017-05-26T00:17:00.450Z,1016.66
2017-05-26T00:18:01.903Z,1016.63
2017-05-26T00:19:03.354Z,1016.65
2017-05-26T00:20:04.812Z,1016.66
2017-05-26T00:21:06.267Z,1016.66
2017-05-26T00:22:07.717Z,1016.66
2017-05-26T00:23:09.171Z,1016.66
2017-05-26T00:24:10.635Z,1016.67
2017-05-26T00:25:12.090Z,1016.64
2017-05-26T00:26:13.551Z,1016.63
2017-05-26T00:27:15.004Z,1016.61
2017-05-26T00:28:16.460Z,1016.62
2017-05-26T00:29:17.914Z,1016.60
2017-05-26T00:30:19.366Z,1016.60
2017-05-26T00:31:20.822Z,1016.63
2017-05-26T00:32:22.303Z,1016.66
2017-05-26T00:33:23.759Z,1016.65
2017-05-26T00:34:25.213Z,1016.66
2017-05-26T00:35:26.676Z,1016.62
2017-05-26T00:36:28.132Z,1016.65
2017-05-26T00:37:29.580Z,1016.60
2017-05-26T00:38:31.032Z,1016.56
2017-05-26T00:39:32.488Z,1016.61
2017-05-26T00:40:33.943Z,1016.55
2017-05-26T00:41:35.404Z,1016.62
2017-05-26T00:42:36.865Z,1016.61
2017-05-26T00:43:38.312Z,1016.62
2017-05-26T00:44:39.763Z,1016.61
2017-05-26T00:45:41.217Z,1016.61
2017-05-26T00:46:42.674Z,1016.58
2017-05-26T00:47:44.138Z,1016.62
2017-05-26T00:48:45.588Z,1016.59
2017-05-26T00:49:47.049Z,1016.58
2017-05-26T00:50:48.504Z,1016.59
2017-05-26T00:51:49.962Z,1016.59
2017-05-26T00:52:51.416Z,1016.62
2017-05-26T00:53:52.872Z,1016.61
2017-05-26T00:54:54.326Z,1016.61
2017-05-26T00:55:55.776Z,1016.61
2017-05-26T00:56:57.244Z,1016.57
2017-05-26T00:57:58.681Z,1016.60
2017-05-26T00:59:00.132Z,1016.55
2017-05-26T01:00:01.611Z,1016.55
2017-05-26T01:01:03.055Z,1016.55
2017-05-26T01:02:04.519Z,1016.53
2017-05-26T01:03:05.970Z,1016.57
2017-05-26T01:04:07.430Z,1016.59
2017-05-26T01:05:08.873Z,1016.56
2017-05-26T01:06:10.326Z,1016.52
2017-05-26T01:07:11.776Z,1016.55
2017-05-26T01:08:13.227Z,1016.56
2017-05-26T01:09:14.683Z,1016.54
2017-05-26T01:10:16.135Z,1016.54
2017-05-26T01:11:17.590Z,1016.56
2017-05-26T01:12:19.038Z,1016.54
2017-05-26T01:13:20.491Z,1016.53
2017-05-26T01:14:21.947Z,1016.52
2017-05-26T01:15:23.404Z,1016.51
2017-05-26T01:16:24.862Z,1016.51
2017-05-26T01:17:26.339Z,1016.54
2017-05-26T01:18:27.794Z,1016.51
2017-05-26T01:19:29.242Z,1016.54
2017-05-26T01:20:30.697Z,1016.58
2017-05-26T01:21:32.165Z,1016.55
2017-05-26T01:22:33.617Z,1016.57
2017-05-26T01:23:35.072Z,1016.55
2017-05-26T01:24:36.547Z,1016.53
2017-05-26T01:25:38.015Z,1016.53
2017-05-26T01:26:39.449Z,1016.49
2017-05-26T01:27:40.899Z,1016.50
2017-05-26T01:28:42.379Z,1016.52
2017-05-26T01:29:43.828Z,1016.54
2017-05-26T01:30:45.315Z,1016.54
2017-05-26T01:31:46.769Z,1016.58
2017-05-26T01:32:48.232Z,1016.58
2017-05-26T01:33:49.681Z,1016.59
2017-05-26T01:34:51.142Z,1016.60
2017-05-26T01:35:52.599Z,1016.58
2017-05-26T01:36:54.055Z,1016.59
2017-05-26T01:37:55.517Z,1016.59
2017-05-26T01:38:56.977Z,1016.59
2017-05-26T01:39:58.433Z,1016.62
2017-05-26T01:40:59.884Z,1016.62
2017-05-26T01:42:01.342Z,1016.62
2017-05-26T01:43:02.795Z,1016.61
2017-05-26T01:44:04.265Z,1016.64
2017-05-26T01:45:05.719Z,1016.62
2017-05-26T01:46:07.214Z,1016.64
2017-05-26T01:47:08.669Z,1016.63
2017-05-26T01:48:10.122Z,1016.59
2017-05-26T01:49:11.574Z,1016.62
2017-05-26T01:50:13.025Z,1016.61
2017-05-26T01:51:14.488Z,1016.57
2017-05-26T01:52:15.938Z,1016.56
2017-05-26T01:53:17.413Z,1016.58
2017-05-26T01:54:18.877Z,1016.54
2017-05-26T01:55:20.340Z,1016.56
2017-05-26T01:56:21.793Z,1016.57
2017-05-26T01:57:23.257Z,1016.61
2017-05-26T01:58:24.722Z,1016.60
2017-05-26T01:59:26.179Z,1016.59
2017-05-26T02:00:27.643Z,1016.58
2017-05-26T02:01:29.098Z,1016.55
2017-05-26T02:02:30.555Z,1016.54
2017-05-26T02:03:32.022Z,1016.53
2017-05-26T02:04:33.477Z,1016.54
2017-05-26T02:05:34.936Z,1016.54
2017-05-26T02:06:36.391Z,1016.52
2017-05-26T02:07:37.849Z,1016.53
2017-05-26T02:08:39.308Z,1016.52
2017-05-26T02:09:40.782Z,1016.53
2017-05-26T02:10:42.251Z,1016.53
2017-05-26T02:11:43.703Z,1016.56
2017-05-26T02:12:45.178Z,1016.54
2017-05-26T02:13:46.640Z,1016.55
2017-05-26T02:14:48.099Z,1016.58
2017-05-26T02:15:49.560Z,1016.59
2017-05-26T02:16:51.013Z,1016.56
2017-05-26T02:17:52.465Z,1016.59
2017-05-26T02:18:53.925Z,1016.55
2017-05-26T02:19:55.375Z,1016.56
2017-05-26T02:20:56.829Z,1016.51
2017-05-26T02:21:58.299Z,1016.55
2017-05-26T02:22:59.755Z,1016.59
2017-05-26T02:24:01.207Z,1016.58
2017-05-26T02:25:02.670Z,1016.57
2017-05-26T02:26:04.142Z,1016.59
2017-05-26T02:27:05.600Z,1016.65
2017-05-26T02:28:07.056Z,1016.63
2017-05-26T02:29:08.513Z,1016.63
2017-05-26T02:30:09.963Z,1016.60
2017-05-26T02:31:11.420Z,1016.62
2017-05-26T02:32:12.866Z,1016.64
2017-05-26T02:33:14.326Z,1016.63
2017-05-26T02:34:15.778Z,1016.62
2017-05-26T02:35:17.236Z,1016.62
2017-05-26T02:36:18.698Z,1016.66
2017-05-26T02:37:20.150Z,1016.62
2017-05-26T02:38:21.604Z,1016.59
2017-05-26T02:39:23.059Z,1016.62
2017-05-26T02:40:24.529Z,1016.64
2017-05-26T02:41:25.983Z,1016.62
2017-05-26T02:42:27.444Z,1016.60
2017-05-26T02:43:28.904Z,1016.65
2017-05-26T02:44:30.354Z,1016.61
2017-05-26T02:45:31.816Z,1016.62
2017-05-26T02:46:33.271Z,1016.61
2017-05-26T02:47:34.728Z,1016.63
2017-05-26T02:48:36.223Z,1016.63
2017-05-26T02:49:37.682Z,1016.63
2017-05-26T02:50:39.142Z,1016.65
2017-05-26T02:51:40.594Z,1016.62
2017-05-26T02:52:42.053Z,1016.63
2017-05-26T02:53:43.507Z,1016.64
2017-05-26T02:54:44.980Z,1016.70
2017-05-26T02:55:46.446Z,1016.73
2017-05-26T02:56:47.902Z,1016.71
2017-05-26T02:57:49.362Z,1016.74
2017-05-26T02:58:50.824Z,1016.75
2017-05-26T02:59:52.284Z,1016.73
2017-05-26T03:00:53.737Z,1016.78
2017-05-26T03:01:55.191Z,1016.76
2017-05-26T03:02:56.650Z,1016.76
2017-05-26T03:03:58.108Z,1016.77
2017-05-26T03:04:59.567Z,1016.75
2017-05-26T03:06:01.036Z,1016.72
2017-05-26T03:07:02.489Z,1016.72
2017-05-26T03:08:03.945Z,1016.75
2017-05-26T03:09:05.400Z,1016.73
2017-05-26T03:10:06.857Z,1016.77
2017-05-26T03:11:08.315Z,1016.77
2017-05-26T03:12:09.776Z,1016.74
2017-05-26T03:13:11.234Z,1016.72
2017-05-26T03:14:12.694Z,1016.74
2017-05-26T03:15:14.150Z,1016.68
2017-05-26T03:16:15.606Z,1016.70
2017-05-26T03:17:17.064Z,1016.68
2017-05-26T03:18:18.525Z,1016.72
2017-05-26T03:19:19.979Z,1016.71
2017-05-26T03:20:21.438Z,1016.74
2017-05-26T03:21:22.896Z,1016.75
2017-05-26T03:22:24.368Z,1016.74
2017-05-26T03:23:25.828Z,1016.75
2017-05-26T03:24:27.285Z,1016.76
2017-05-26T03:25:28.745Z,1016.73
2017-05-26T03:26:30.231Z,1016.75
2017-05-26T03:27:31.701Z,1016.75
2017-05-26T03:28:33.163Z,1016.74
2017-05-26T03:29:34.634Z,1016.73
2017-05-26T03:30:36.108Z,1016.75
2017-05-26T03:31:37.552Z,1016.75
2017-05-26T03:32:39.022Z,1016.75
2017-05-26T03:33:40.500Z,1016.74
2017-05-26T03:34:41.996Z,1016.74
2017-05-26T03:35:43.457Z,1016.71
2017-05-26T03:36:44.925Z,1016.69
2017-05-26T03:37:46.412Z,1016.69
2017-05-26T03:38:47.880Z,1016.68
2017-05-26T03:39:49.340Z,1016.68
2017-05-26T03:40:50.803Z,1016.70
2017-05-26T03:41:52.268Z,1016.71
2017-05-26T03:42:53.727Z,1016.69
2017-05-26T03:43:55.188Z,1016.70
2017-05-26T03:44:56.644Z,1016.68
2017-05-26T03:45:58.782Z,1016.71
2017-05-26T03:47:00.263Z,1016.73
2017-05-26T03:48:01.719Z,1016.73
2017-05-26T03:49:03.180Z,1016.72
2017-05-26T03:50:04.636Z,1016.70
2017-05-26T03:51:06.098Z,1016.70
2017-05-26T03:52:07.556Z,1016.73
2017-05-26T03:53:09.019Z,1016.75
2017-05-26T03:54:10.496Z,1016.74
2017-05-26T03:55:11.956Z,1016.77
2017-05-26T03:56:13.422Z,1016.73
2017-05-26T03:57:14.887Z,1016.73
2017-05-26T03:58:16.353Z,1016.82
2017-05-26T03:59:17.815Z,1016.79
2017-05-26T04:00:19.268Z,1016.79
2017-05-26T04:01:20.751Z,1016.79
2017-05-26T04:02:22.208Z,1016.79
2017-05-26T04:03:23.668Z,1016.81
2017-05-26T04:04:25.153Z,1016.80
2017-05-26T04:05:26.612Z,1016.81
2017-05-26T04:06:28.110Z,1016.79
2017-05-26T04:07:29.531Z,1016.82
2017-05-26T04:08:31.000Z,1016.81
2017-05-26T04:09:32.464Z,1016.81
2017-05-26T04:10:33.943Z,1016.81
2017-05-26T04:11:35.395Z,1016.84
2017-05-26T04:12:36.862Z,1016.81
2017-05-26T04:13:38.320Z,1016.81
2017-05-26T04:14:39.775Z,1016.84
2017-05-26T04:15:41.238Z,1016.82
2017-05-26T04:16:42.716Z,1016.84
2017-05-26T04:17:44.169Z,1016.82
2017-05-26T04:18:45.648Z,1016.84
2017-05-26T04:19:47.145Z,1016.89
2017-05-26T04:20:48.602Z,1016.83
2017-05-26T04:21:50.061Z,1016.86
2017-05-26T04:22:51.523Z,1016.88
2017-05-26T04:23:52.983Z,1016.85
2017-05-26T04:24:54.471Z,1016.87
2017-05-26T04:25:55.934Z,1016.82
2017-05-26T04:26:57.395Z,1016.86
2017-05-26T04:27:58.867Z,1016.86
2017-05-26T04:29:00.320Z,1016.86
2017-05-26T04:30:01.787Z,1016.89
2017-05-26T04:31:03.256Z,1016.91
2017-05-26T04:32:04.732Z,1016.90
2017-05-26T04:33:06.189Z,1016.90
2017-05-26T04:34:07.648Z,1016.88
2017-05-26T04:35:09.121Z,1016.91
2017-05-26T04:36:10.599Z,1016.91
2017-05-26T04:37:12.057Z,1016.94
2017-05-26T04:38:13.527Z,1016.96
2017-05-26T04:39:15.001Z,1016.99
2017-05-26T04:40:16.455Z,1017.01
2017-05-26T04:41:17.918Z,1016.97
2017-05-26T04:42:19.377Z,1016.96
2017-05-26T04:43:20.834Z,1016.93
2017-05-26T04:44:22.298Z,1016.92
2017-05-26T04:45:23.764Z,1016.94
2017-05-26T04:46:25.229Z,1016.95
2017-05-26T04:47:26.695Z,1016.95
2017-05-26T04:48:28.163Z,1016.94
2017-05-26T04:49:29.625Z,1016.94
2017-05-26T04:50:31.094Z,1016.97
2017-05-26T04:51:32.562Z,1017.02
2017-05-26T04:52:34.041Z,1016.99
2017-05-26T04:53:35.503Z,1016.99
2017-05-26T04:54:36.971Z,1017.03
2017-05-26T04:55:38.442Z,1017.01
2017-05-26T04:56:39.899Z,1017.01
2017-05-26T04:57:41.368Z,1016.96
2017-05-26T04:58:42.829Z,1016.97
2017-05-26T04:59:44.309Z,1016.96
2017-05-26T05:00:45.772Z,1016.97
2017-05-26T05:01:47.238Z,1017.00
2017-05-26T05:02:48.754Z,1016.99
2017-05-26T05:03:50.179Z,1016.97
2017-05-26T05:04:51.650Z,1016.94
2017-05-26T05:05:53.129Z,1016.97
2017-05-26T05:06:54.597Z,1016.94
2017-05-26T05:07:56.087Z,1016.93
2017-05-26T05:08:57.554Z,1016.97
2017-05-26T05:09:59.023Z,1016.98
2017-05-26T05:11:00.491Z,1016.97
2017-05-26T05:12:01.958Z,1016.99
2017-05-26T05:13:03.429Z,1017.00
2017-05-26T05:14:04.910Z,1016.96
2017-05-26T05:15:06.385Z,1016.97
2017-05-26T05:16:07.894Z,1017.00
2017-05-26T05:17:09.371Z,1016.97
2017-05-26T05:18:10.833Z,1017.00
2017-05-26T05:19:12.300Z,1017.02
2017-05-26T05:20:13.775Z,1017.01
2017-05-26T05:21:15.265Z,1016.99
2017-05-26T05:22:16.739Z,1017.01
2017-05-26T05:23:18.193Z,1017.01
2017-05-26T05:24:19.671Z,1017.01
2017-05-26T05:25:21.143Z,1017.03
2017-05-26T05:26:22.619Z,1017.03
2017-05-26T05:27:24.086Z,1017.04
2017-05-26T05:28:25.558Z,1017.01
2017-05-26T05:29:27.031Z,1017.03
2017-05-26T05:30:28.506Z,1016.98
2017-05-26T05:31:29.970Z,1016.99
2017-05-26T05:32:31.451Z,1016.98
2017-05-26T05:33:32.914Z,1016.97
2017-05-26T05:34:34.389Z,1017.03
2017-05-26T05:35:35.861Z,1017.04
2017-05-26T05:36:37.337Z,1017.07
2017-05-26T05:37:38.804Z,1017.04
2017-05-26T05:38:40.274Z,1017.07
2017-05-26T05:39:41.753Z,1017.05
2017-05-26T05:40:43.233Z,1017.05
2017-05-26T05:41:44.730Z,1017.04
2017-05-26T05:42:46.201Z,1017.01
2017-05-26T05:43:47.683Z,1017.09
2017-05-26T05:44:49.143Z,1017.10
2017-05-26T05:45:50.622Z,1017.08
2017-05-26T05:46:52.094Z,1017.12
2017-05-26T05:47:53.563Z,1017.13
2017-05-26T05:48:55.032Z,1017.06
2017-05-26T05:49:56.521Z,1017.07
2017-05-26T05:50:58.025Z,1017.12
2017-05-26T05:51:59.504Z,1017.13
2017-05-26T05:53:00.980Z,1017.18
2017-05-26T05:54:02.454Z,1017.16
2017-05-26T05:55:03.926Z,1017.17
2017-05-26T05:56:05.422Z,1017.22
2017-05-26T05:57:06.899Z,1017.24
2017-05-26T05:58:08.386Z,1017.19
2017-05-26T05:59:09.874Z,1017.24
2017-05-26T06:00:11.356Z,1017.17
2017-05-26T06:01:12.832Z,1017.16
2017-05-26T06:02:14.302Z,1017.16
2017-05-26T06:03:15.773Z,1017.14
2017-05-26T06:04:17.256Z,1017.15
2017-05-26T06:05:18.734Z,1017.15
2017-05-26T06:06:20.208Z,1017.18
2017-05-26T06:07:21.684Z,1017.16
2017-05-26T06:08:23.154Z,1017.25
2017-05-26T06:09:24.631Z,1017.24
2017-05-26T06:10:26.116Z,1017.33
2017-05-26T06:11:27.608Z,1017.29
2017-05-26T06:12:29.079Z,1017.29
2017-05-26T06:13:30.563Z,1017.32
2017-05-26T06:14:32.043Z,1017.33
2017-05-26T06:15:33.519Z,1017.40
2017-05-26T06:16:34.992Z,1017.43
2017-05-26T06:17:36.463Z,1017.45
2017-05-26T06:18:37.953Z,1017.48
2017-05-26T06:19:39.434Z,1017.51
2017-05-26T06:20:40.903Z,1017.52
2017-05-26T06:21:42.382Z,1017.51
2017-05-26T06:22:43.861Z,1017.50
2017-05-26T06:23:45.343Z,1017.52
2017-05-26T06:24:46.820Z,1017.55
2017-05-26T06:25:48.316Z,1017.62
2017-05-26T06:26:49.795Z,1017.66
2017-05-26T06:27:51.270Z,1017.74
2017-05-26T06:28:52.744Z,1017.68
2017-05-26T06:29:54.278Z,1017.77
2017-05-26T06:30:55.753Z,1017.84
2017-05-26T06:31:57.230Z,1017.77
2017-05-26T06:32:58.713Z,1017.76
2017-05-26T06:34:00.189Z,1017.74
2017-05-26T06:35:01.732Z,1017.72
2017-05-26T06:36:04.134Z,1017.67
2017-05-26T06:37:05.607Z,1017.64
2017-05-26T06:38:07.091Z,1017.66
2017-05-26T06:39:08.575Z,1017.67
2017-05-26T06:40:10.052Z,1017.64
2017-05-26T06:41:11.536Z,1017.74
2017-05-26T06:42:13.007Z,1017.82
2017-05-26T06:43:14.483Z,1017.88
2017-05-26T06:44:15.960Z,1017.91
2017-05-26T06:45:17.435Z,1018.00
2017-05-26T06:46:18.920Z,1018.04
2017-05-26T06:47:20.392Z,1018.19
2017-05-26T06:48:21.872Z,1018.59
2017-05-26T06:49:23.346Z,1018.69
2017-05-26T06:50:24.844Z,1018.47
2017-05-26T06:51:26.324Z,1018.26
2017-05-26T06:52:27.806Z,1018.61
2017-05-26T06:53:29.285Z,1019.46
2017-05-26T06:54:30.776Z,1018.93
2017-05-26T06:55:32.246Z,1018.75
2017-05-26T06:56:33.747Z,1018.93
2017-05-26T06:57:35.247Z,1019.79
2017-05-26T06:58:36.732Z,1019.81
2017-05-26T06:59:38.210Z,1019.04
2017-05-26T07:00:39.700Z,1018.64
2017-05-26T07:01:41.176Z,1018.55
2017-05-26T07:02:42.658Z,1018.51
2017-05-26T07:03:44.132Z,1018.36
2017-05-26T07:04:45.615Z,1018.43
2017-05-26T07:05:47.101Z,1018.52
2017-05-26T07:06:48.588Z,1018.52
2017-05-26T07:07:50.063Z,1018.54
2017-05-26T07:08:51.541Z,1018.69
2017-05-26T07:09:53.018Z,1018.69
2017-05-26T07:10:54.496Z,1018.68
2017-05-26T07:11:56.037Z,1018.67
2017-05-26T07:12:57.458Z,1018.59
2017-05-26T07:13:58.935Z,1018.59
2017-05-26T07:15:00.420Z,1018.52
2017-05-26T07:16:01.918Z,1018.58
2017-05-26T07:17:03.396Z,1018.61
2017-05-26T07:18:04.883Z,1018.53
2017-05-26T07:19:06.392Z,1018.52
2017-05-26T07:20:07.870Z,1018.51
2017-05-26T07:21:09.369Z,1018.50
2017-05-26T07:22:10.863Z,1018.49
2017-05-26T07:23:12.347Z,1018.54
2017-05-26T07:24:13.823Z,1018.53
2017-05-26T07:25:15.307Z,1018.53
2017-05-26T07:26:16.788Z,1018.57
2017-05-26T07:27:18.282Z,1018.52
2017-05-26T07:28:19.767Z,1018.54
2017-05-26T07:29:21.243Z,1018.54
2017-05-26T07:30:22.729Z,1018.49
2017-05-26T07:31:24.216Z,1018.54
2017-05-26T07:32:25.707Z,1018.57
2017-05-26T07:33:27.214Z,1018.63
2017-05-26T07:34:28.690Z,1018.64
2017-05-26T07:35:30.178Z,1018.59
2017-05-26T07:36:31.668Z,1018.60
2017-05-26T07:37:33.160Z,1018.60
2017-05-26T07:38:34.659Z,1018.54
2017-05-26T07:39:36.138Z,1018.52
2017-05-26T07:40:37.621Z,1018.45
2017-05-26T07:41:39.108Z,1018.37
2017-05-26T07:42:40.589Z,1018.40
2017-05-26T07:43:42.082Z,1018.38
2017-05-26T07:44:43.558Z,1018.28
2017-05-26T07:45:45.053Z,1018.16
2017-05-26T07:46:46.554Z,1018.16
2017-05-26T07:47:48.048Z,1018.17
2017-05-26T07:48:49.521Z,1018.10
2017-05-26T07:49:51.010Z,1018.06
2017-05-26T07:50:52.504Z,1018.03
2017-05-26T07:51:53.991Z,1018.00
2017-05-26T07:52:55.476Z,1017.96
2017-05-26T07:53:56.972Z,1017.91
2017-05-26T07:54:58.455Z,1017.86
2017-05-26T07:55:59.931Z,1017.81
2017-05-26T07:57:01.418Z,1017.82
2017-05-26T07:58:02.898Z,1017.78
2017-05-26T07:59:04.399Z,1017.77
2017-05-26T08:00:05.880Z,1017.77
2017-05-26T08:01:07.385Z,1017.73
2017-05-26T08:02:08.870Z,1017.75
2017-05-26T08:03:10.361Z,1017.73
2017-05-26T08:04:11.901Z,1017.69
2017-05-26T08:05:13.388Z,1017.66
2017-05-26T08:06:14.919Z,1017.59
2017-05-26T08:07:16.410Z,1017.57
2017-05-26T08:08:17.900Z,1017.53
2017-05-26T08:09:19.377Z,1017.52
2017-05-26T08:10:20.876Z,1017.53
2017-05-26T08:11:22.384Z,1017.53
2017-05-26T08:12:23.875Z,1017.50
2017-05-26T08:13:25.394Z,1017.52
2017-05-26T08:14:26.898Z,1017.57
2017-05-26T08:15:28.381Z,1017.59
2017-05-26T08:16:29.870Z,1017.58
2017-05-26T08:17:31.374Z,1017.57
2017-05-26T08:18:32.881Z,1017.57
2017-05-26T08:19:34.374Z,1017.60
2017-05-26T08:20:35.863Z,1017.56
2017-05-26T08:21:37.417Z,1017.53
2017-05-26T08:22:38.902Z,1017.54
2017-05-26T08:23:40.394Z,1017.53
2017-05-26T08:24:41.927Z,1017.50
2017-05-26T08:25:43.406Z,1017.49
2017-05-26T08:26:44.916Z,1017.47
2017-05-26T08:27:46.396Z,1017.50
2017-05-26T08:28:47.905Z,1017.50
2017-05-26T08:29:49.474Z,1017.53
2017-05-26T08:30:50.912Z,1017.51
2017-05-26T08:31:52.386Z,1017.51
2017-05-26T08:32:53.876Z,1017.53
2017-05-26T08:33:55.368Z,1017.48
2017-05-26T08:34:56.850Z,1017.55
2017-05-26T08:35:59.657Z,1017.49
2017-05-26T08:37:00.471Z,1017.48
2017-05-26T08:38:02.007Z,1017.45
2017-05-26T08:39:03.443Z,1017.44
2017-05-26T08:40:04.925Z,1017.42
2017-05-26T08:41:06.432Z,1017.47
2017-05-26T08:42:07.923Z,1017.40
2017-05-26T08:43:09.414Z,1017.43
2017-05-26T08:44:10.901Z,1017.45
2017-05-26T08:45:12.409Z,1017.42
2017-05-26T08:46:13.912Z,1017.36
2017-05-26T08:47:15.399Z,1017.41
2017-05-26T08:48:16.912Z,1017.35
2017-05-26T08:49:18.389Z,1017.37
2017-05-26T08:50:19.878Z,1017.36
2017-05-26T08:51:21.359Z,1017.36
2017-05-26T08:52:22.850Z,1017.31
2017-05-26T08:53:24.334Z,1017.34
2017-05-26T08:54:25.821Z,1017.37
2017-05-26T08:55:27.349Z,1017.36
2017-05-26T08:56:28.843Z,1017.37
2017-05-26T08:57:30.328Z,1017.35
2017-05-26T08:58:31.819Z,1017.34
2017-05-26T08:59:33.298Z,1017.33
2017-05-26T09:00:34.781Z,1017.34
2017-05-26T09:01:36.264Z,1017.34
2017-05-26T09:02:37.755Z,1017.32
2017-05-26T09:03:39.242Z,1017.33
2017-05-26T09:04:40.731Z,1017.37
2017-05-26T09:05:42.224Z,1017.39
2017-05-26T09:06:43.720Z,1017.32
2017-05-26T09:07:45.215Z,1017.29
2017-05-26T09:08:46.699Z,1017.29
2017-05-26T09:09:48.185Z,1017.33
2017-05-26T09:10:49.669Z,1017.31
2017-05-26T09:11:51.170Z,1017.30
2017-05-26T09:12:52.694Z,1017.28
2017-05-26T09:13:54.178Z,1017.26
2017-05-26T09:14:55.663Z,1017.26
2017-05-26T09:15:59.971Z,1017.23
2017-05-26T09:17:01.454Z,1017.28
2017-05-26T09:18:02.933Z,1017.25
2017-05-26T09:19:04.443Z,1017.22
2017-05-26T09:20:05.947Z,1017.25
2017-05-26T09:21:07.443Z,1017.27
2017-05-26T09:22:08.952Z,1017.25
2017-05-26T09:23:10.463Z,1017.24
2017-05-26T09:24:11.988Z,1017.22
2017-05-26T09:25:13.487Z,1017.24
2017-05-26T09:26:14.974Z,1017.21
2017-05-26T09:27:16.460Z,1017.18
2017-05-26T09:28:17.965Z,1017.11
2017-05-26T09:29:19.454Z,1017.09
2017-05-26T09:30:20.956Z,1017.13
2017-05-26T09:31:22.460Z,1017.14
2017-05-26T09:32:23.951Z,1017.13
2017-05-26T09:33:25.442Z,1017.13
2017-05-26T09:34:26.931Z,1017.12
2017-05-26T09:35:28.422Z,1017.09
2017-05-26T09:36:29.920Z,1017.08
2017-05-26T09:37:31.401Z,1017.05
2017-05-26T09:38:32.889Z,1017.07
2017-05-26T09:39:34.381Z,1017.06
2017-05-26T09:40:35.898Z,1017.11
2017-05-26T09:41:37.381Z,1017.10
2017-05-26T09:42:38.883Z,1017.07
2017-05-26T09:43:40.369Z,1017.09
2017-05-26T09:44:41.854Z,1017.10
2017-05-26T09:45:43.340Z,1017.12
2017-05-26T09:46:44.849Z,1017.13
2017-05-26T09:47:46.334Z,1017.10
2017-05-26T09:48:47.833Z,1017.14
2017-05-26T09:49:49.329Z,1017.10
2017-05-26T09:50:50.814Z,1017.10
2017-05-26T09:51:52.297Z,1017.20
2017-05-26T09:52:53.779Z,1017.28
2017-05-26T09:53:55.289Z,1017.32
2017-05-26T09:54:56.786Z,1017.27
2017-05-26T09:56:00.736Z,1017.16
2017-05-26T09:57:02.221Z,1017.14
2017-05-26T09:58:03.702Z,1017.17
2017-05-26T09:59:05.191Z,1017.13
2017-05-26T10:00:06.686Z,1017.12
2017-05-26T10:01:08.165Z,1017.11
2017-05-26T10:02:09.658Z,1017.10
2017-05-26T10:03:11.147Z,1017.09
2017-05-26T10:04:12.643Z,1017.11
2017-05-26T10:05:14.132Z,1017.14
2017-05-26T10:06:15.634Z,1017.14
2017-05-26T10:07:17.123Z,1017.11
2017-05-26T10:08:18.610Z,1017.16
2017-05-26T10:09:20.114Z,1017.09
2017-05-26T10:10:21.593Z,1017.08
2017-05-26T10:11:23.085Z,1017.08
2017-05-26T10:12:24.571Z,1017.14
2017-05-26T10:13:26.101Z,1017.32
2017-05-26T10:14:27.585Z,1017.33
2017-05-26T10:15:29.081Z,1017.00
2017-05-26T10:16:30.574Z,1017.03
2017-05-26T10:17:32.087Z,1016.94
2017-05-26T10:18:33.577Z,1016.93
2017-05-26T10:19:35.070Z,1016.87
2017-05-26T10:20:36.561Z,1016.92
2017-05-26T10:21:38.043Z,1016.83
2017-05-26T10:22:39.532Z,1016.87
2017-05-26T10:23:41.023Z,1016.87
2017-05-26T10:24:42.512Z,1016.92
2017-05-26T10:25:44.003Z,1016.93
2017-05-26T10:26:45.495Z,1016.93
2017-05-26T10:27:46.989Z,1016.92
2017-05-26T10:28:48.470Z,1016.95
2017-05-26T10:29:49.963Z,1016.92
2017-05-26T10:30:51.453Z,1016.93
2017-05-26T10:31:52.941Z,1016.91
2017-05-26T10:32:54.423Z,1016.90
2017-05-26T10:33:55.923Z,1016.90
2017-05-26T10:34:57.416Z,1016.91
2017-05-26T10:35:58.900Z,1016.96
2017-05-26T10:37:00.388Z,1016.92
2017-05-26T10:38:01.878Z,1016.95
2017-05-26T10:39:03.370Z,1016.93
2017-05-26T10:40:04.860Z,1016.92
2017-05-26T10:41:06.348Z,1016.90
2017-05-26T10:42:07.839Z,1016.88
2017-05-26T10:43:09.327Z,1016.85
2017-05-26T10:44:10.838Z,1016.87
2017-05-26T10:45:12.351Z,1016.84
2017-05-26T10:46:13.839Z,1016.86
2017-05-26T10:47:15.347Z,1016.86
2017-05-26T10:48:16.833Z,1016.93
2017-05-26T10:49:18.323Z,1016.94
2017-05-26T10:50:19.801Z,1016.90
2017-05-26T10:51:21.302Z,1016.89
2017-05-26T10:52:22.792Z,1016.88
2017-05-26T10:53:24.281Z,1016.85
2017-05-26T10:54:25.772Z,1016.81
2017-05-26T10:55:27.277Z,1016.82
2017-05-26T10:56:28.779Z,1016.82
2017-05-26T10:57:30.267Z,1016.84
2017-05-26T10:58:32.655Z,1016.82
2017-05-26T10:59:34.152Z,1016.74
2017-05-26T11:00:35.639Z,1016.74
2017-05-26T11:01:37.124Z,1016.75
2017-05-26T11:02:38.604Z,1016.71
2017-05-26T11:03:40.104Z,1016.70
2017-05-26T11:04:41.598Z,1016.79
2017-05-26T11:05:43.086Z,1016.69
2017-05-26T11:06:44.584Z,1016.65
2017-05-26T11:07:46.076Z,1016.67
2017-05-26T11:08:47.558Z,1016.69
2017-05-26T11:09:49.042Z,1016.66
2017-05-26T11:10:50.530Z,1016.65
2017-05-26T11:11:52.014Z,1016.67
2017-05-26T11:12:53.497Z,1016.61
2017-05-26T11:13:54.993Z,1016.59
2017-05-26T11:14:56.483Z,1016.55
2017-05-26T11:15:57.972Z,1016.52
2017-05-26T11:16:59.466Z,1016.52
2017-05-26T11:18:00.944Z,1016.51
2017-05-26T11:19:02.434Z,1016.50
2017-05-26T11:20:03.919Z,1016.50
2017-05-26T11:21:05.408Z,1016.45
2017-05-26T11:22:06.891Z,1016.40
2017-05-26T11:23:08.382Z,1016.39
2017-05-26T11:24:09.871Z,1016.39
2017-05-26T11:25:11.375Z,1016.37
2017-05-26T11:26:12.894Z,1016.39
2017-05-26T11:27:14.392Z,1016.41
2017-05-26T11:28:15.928Z,1016.37
2017-05-26T11:29:17.376Z,1016.42
2017-05-26T11:30:18.874Z,1016.40
2017-05-26T11:31:20.364Z,1016.39
2017-05-26T11:32:21.868Z,1016.39
2017-05-26T11:33:23.361Z,1016.39
2017-05-26T11:34:24.864Z,1016.37
2017-05-26T11:35:26.367Z,1016.36
2017-05-26T11:36:27.866Z,1016.32
2017-05-26T11:37:29.389Z,1016.28
2017-05-26T11:38:30.894Z,1016.36
2017-05-26T11:39:32.389Z,1016.30
2017-05-26T11:40:33.889Z,1016.30
2017-05-26T11:41:35.411Z,1016.22
2017-05-26T11:42:36.915Z,1016.23
2017-05-26T11:43:38.393Z,1016.19
2017-05-26T11:44:39.899Z,1016.19
2017-05-26T11:45:41.385Z,1016.26
2017-05-26T11:46:42.873Z,1016.09
2017-05-26T11:47:44.355Z,1016.07
2017-05-26T11:48:45.853Z,1016.02
2017-05-26T11:49:47.348Z,1016.01
2017-05-26T11:50:48.855Z,1015.96
2017-05-26T11:51:50.350Z,1015.97
2017-05-26T11:52:51.849Z,1015.90
2017-05-26T11:53:53.337Z,1015.89
2017-05-26T11:54:54.876Z,1015.89
2017-05-26T11:55:56.344Z,1015.88
2017-05-26T11:56:57.835Z,1015.91
2017-05-26T11:57:59.327Z,1015.83
2017-05-26T11:59:00.815Z,1015.72
2017-05-26T12:00:02.301Z,1015.72
2017-05-26T12:01:03.788Z,1015.68
2017-05-26T12:02:05.282Z,1015.73
2017-05-26T12:03:06.769Z,1015.62
2017-05-26T12:04:08.265Z,1015.64
2017-05-26T12:05:09.761Z,1015.61
2017-05-26T12:06:11.273Z,1015.58
2017-05-26T12:07:12.809Z,1015.58
2017-05-26T12:08:14.300Z,1015.60
2017-05-26T12:09:15.791Z,1015.65
2017-05-26T12:10:17.280Z,1015.65
2017-05-26T12:11:18.777Z,1015.64
2017-05-26T12:12:20.278Z,1015.64
2017-05-26T12:13:21.772Z,1015.65
2017-05-26T12:14:23.260Z,1015.72
2017-05-26T12:15:24.750Z,1015.70
2017-05-26T12:16:26.242Z,1015.70
2017-05-26T12:17:27.736Z,1015.70
2017-05-26T12:18:29.254Z,1015.65
2017-05-26T12:19:30.763Z,1015.62
2017-05-26T12:20:32.266Z,1015.63
2017-05-26T12:21:33.751Z,1015.66
2017-05-26T12:22:35.241Z,1015.52
2017-05-26T12:23:36.727Z,1015.56